Terminal Aerodrome Forecast
Issued by NWS Cleveland, OH

Home | Current Version | Previous Version | Graphics & Text | Print | Product List | Glossary On
Versions: 1 2 3 4 5 6 7 8 9 10 11 12 13 14 15 16
000
FTUS41 KCLE 191315 AAA
TAFCAK
TAF AMD
KCAK 191315Z 1913/2012 30011G16KT P6SM -SN OVC020
     FM191500 29015G25KT P6SM VCSH OVC025
     FM192100 29010G20KT P6SM OVC035
     FM192200 29012KT P6SM OVC035
     FM201000 24009KT P6SM SCT250=

USA.gov is the U.S. government's official web portal to all federal, state and local government web resources and services.